地図

経路データ

SID SEASON NUMBER BASIN SUBBASIN NAME ISO_TIME NATURE LAT LON WMO_WIND WMO_PRES WMO_AGENCY TRACK_TYPE DIST2LAND LANDFALL IFLAG USA_AGENCY USA_ATCF_ID USA_LAT USA_LON USA_RECORD USA_STATUS USA_WIND USA_PRES USA_SSHS USA_R34_NE USA_R34_SE USA_R34_SW USA_R34_NW USA_R50_NE USA_R50_SE USA_R50_SW USA_R50_NW USA_R64_NE USA_R64_SE USA_R64_SW USA_R64_NW USA_POCI USA_ROCI USA_RMW USA_EYE TOKYO_LAT TOKYO_LON TOKYO_GRADE TOKYO_WIND TOKYO_PRES TOKYO_R50_DIR TOKYO_R50_LONG TOKYO_R50_SHORT TOKYO_R30_DIR TOKYO_R30_LONG TOKYO_R30_SHORT TOKYO_LAND CMA_LAT CMA_LON CMA_CAT CMA_WIND CMA_PRES HKO_LAT HKO_LON HKO_CAT HKO_WIND HKO_PRES NEWDELHI_LAT NEWDELHI_LON NEWDELHI_GRADE NEWDELHI_WIND NEWDELHI_PRES NEWDELHI_CI NEWDELHI_DP NEWDELHI_POCI REUNION_LAT REUNION_LON REUNION_TYPE REUNION_WIND REUNION_PRES REUNION_TNUM REUNION_CI REUNION_RMW REUNION_R34_NE REUNION_R34_SE REUNION_R34_SW REUNION_R34_NW REUNION_R50_NE REUNION_R50_SE REUNION_R50_SW REUNION_R50_NW REUNION_R64_NE REUNION_R64_SE REUNION_R64_SW REUNION_R64_NW BOM_LAT BOM_LON BOM_TYPE BOM_WIND BOM_PRES BOM_TNUM BOM_CI BOM_RMW BOM_R34_NE BOM_R34_SE BOM_R34_SW BOM_R34_NW BOM_R50_NE BOM_R50_SE BOM_R50_SW BOM_R50_NW BOM_R64_NE BOM_R64_SE BOM_R64_SW BOM_R64_NW BOM_ROCI BOM_POCI BOM_EYE BOM_POS_METHOD BOM_PRES_METHOD NADI_LAT NADI_LON NADI_CAT NADI_WIND NADI_PRES WELLINGTON_LAT WELLINGTON_LON WELLINGTON_WIND WELLINGTON_PRES DS824_LAT DS824_LON DS824_STAGE DS824_WIND DS824_PRES TD9636_LAT TD9636_LON TD9636_STAGE TD9636_WIND TD9636_PRES TD9635_LAT TD9635_LON TD9635_WIND TD9635_PRES TD9635_ROCI NEUMANN_LAT NEUMANN_LON NEUMANN_CLASS NEUMANN_WIND NEUMANN_PRES MLC_LAT MLC_LON MLC_CLASS MLC_WIND MLC_PRES USA_GUST BOM_GUST BOM_GUST_PER REUNION_GUST REUNION_GUST_PER USA_SEAHGT USA_SEARAD_NE USA_SEARAD_SE USA_SEARAD_SW USA_SEARAD_NW STORM_SPEED STORM_DIR
1968153N17275 1968 29 NA CS ABBY 1968-06-01 06:00:00 TS 17.2000 -85.5000 30 hurdat_atl main 145 145 O_____________ hurdat_atl AL011968 17.2000 -85.5000 TD 30 -1 2 0
1968153N17275 1968 29 NA CS ABBY 1968-06-01 09:00:00 TS 17.3075 -85.4776 main 156 156 P_____________ AL011968 17.3075 -85.4776 TD 30 -1 3 0
1968153N17275 1968 29 NA CS ABBY 1968-06-01 12:00:00 TS 17.5000 -85.5000 30 hurdat_atl main 179 179 O_____________ hurdat_atl AL011968 17.5000 -85.5000 TD 30 -1 5 348
1968153N17275 1968 29 NA CS ABBY 1968-06-01 15:00:00 TS 17.8275 -85.5924 main 212 212 P_____________ AL011968 17.8275 -85.5924 TD 30 -1 7 345
1968153N17275 1968 29 NA CS ABBY 1968-06-01 18:00:00 TS 18.2000 -85.7000 30 hurdat_atl main 215 194 O_____________ hurdat_atl AL011968 18.2000 -85.7000 TD 30 -1 7 345
1968153N17275 1968 29 NA CS ABBY 1968-06-01 21:00:00 TS 18.4850 -85.7725 main 194 184 P_____________ AL011968 18.4850 -85.7725 TD 30 -1 6 351
1968153N17275 1968 29 NA CS ABBY 1968-06-02 00:00:00 TS 18.8000 -85.8000 30 1005 hurdat_atl main 184 171 O_____________ hurdat_atl AL011968 18.8000 -85.8000 TD 30 1005 -1 8 0
1968153N17275 1968 29 NA CS ABBY 1968-06-02 03:00:00 TS 19.2350 -85.7874 main 171 167 P_____________ AL011968 19.2350 -85.7874 TD 30 -1 9 6
1968153N17275 1968 29 NA CS ABBY 1968-06-02 06:00:00 TS 19.7000 -85.7000 30 hurdat_atl main 175 156 O_____________ hurdat_atl AL011968 19.7000 -85.7000 TD 30 -1 9 16
1968153N17275 1968 29 NA CS ABBY 1968-06-02 09:00:00 TS 20.1000 -85.5300 main 165 154 P_____________ AL011968 20.1000 -85.5300 TD 30 -1 9 25
1968153N17275 1968 29 NA CS ABBY 1968-06-02 12:00:00 TS 20.5000 -85.3000 30 hurdat_atl main 154 105 O_____________ hurdat_atl AL011968 20.5000 -85.3000 TD 30 -1 10 27
1968153N17275 1968 29 NA CS ABBY 1968-06-02 15:00:00 TS 20.9425 -85.0649 main 105 44 P_____________ AL011968 20.9425 -85.0649 TD 35 0 10 27
1968153N17275 1968 29 NA CS ABBY 1968-06-02 18:00:00 TS 21.4000 -84.8000 40 1002 hurdat_atl main 44 0 O_____________ hurdat_atl AL011968 21.4000 -84.8000 TS 40 1002 0 11 31
1968153N17275 1968 29 NA CS ABBY 1968-06-02 21:00:00 TS 21.8426 -84.4851 main 0 0 P_____________ AL011968 21.8426 -84.4851 TS 42 999 0 11 32
1968153N17275 1968 29 NA NA ABBY 1968-06-03 00:00:00 TS 22.3000 -84.2000 45 997 hurdat_atl main 0 0 O_____________ hurdat_atl AL011968 22.3000 -84.2000 TS 45 997 0 10 24
1968153N17275 1968 29 NA GM ABBY 1968-06-03 03:00:00 TS 22.7774 -84.0271 main 11 11 P_____________ AL011968 22.7774 -84.0271 TS 52 998 0 10 16
1968153N17275 1968 29 NA GM ABBY 1968-06-03 06:00:00 TS 23.3000 -83.9000 60 999 hurdat_atl main 59 59 O_____________ hurdat_atl AL011968 23.3000 -83.9000 TS 60 999 0 12 13
1968153N17275 1968 29 NA GM ABBY 1968-06-03 09:00:00 TS 23.9525 -83.7353 main 126 126 P_____________ AL011968 23.9525 -83.7353 TS 62 999 0 12 13
1968153N17275 1968 29 NA GM ABBY 1968-06-03 12:00:00 TS 24.5000 -83.6000 65 999 hurdat_atl main 179 179 O_____________ hurdat_atl AL011968 24.5000 -83.6000 HU 65 999 1 8 13
1968153N17275 1968 29 NA GM ABBY 1968-06-03 15:00:00 TS 24.7174 -83.5422 main 201 201 P_____________ AL011968 24.7174 -83.5422 HU 65 997 1 3 16
1968153N17275 1968 29 NA GM ABBY 1968-06-03 18:00:00 TS 24.8000 -83.5000 65 hurdat_atl main 212 203 I_____________ hurdat_atl AL011968 24.8000 -83.5000 HU 65 996 1 2 29
1968153N17275 1968 29 NA GM ABBY 1968-06-03 21:00:00 TS 24.9200 -83.4223 main 203 183 P_____________ AL011968 24.9200 -83.4223 HU 65 995 1 4 31
1968153N17275 1968 29 NA GM ABBY 1968-06-04 00:00:00 TS 25.1000 -83.3000 65 994 hurdat_atl main 183 160 O_____________ hurdat_atl AL011968 25.1000 -83.3000 HU 65 994 1 5 28
1968153N17275 1968 29 NA GM ABBY 1968-06-04 03:00:00 TS 25.3899 -83.1446 main 150 114 P_____________ AL011968 25.3899 -83.1446 HU 62 993 0 8 27
1968153N17275 1968 29 NA GM ABBY 1968-06-04 06:00:00 TS 25.8000 -82.9000 60 993 hurdat_atl main 114 52 O_____________ hurdat_atl AL011968 25.8000 -82.9000 TS 60 993 0 11 31
1968153N17275 1968 29 NA GM ABBY 1968-06-04 09:00:00 TS 26.3503 -82.5009 main 45 0 P_____________ AL011968 26.3503 -82.5009 TS 57 992 0 13 33
1968153N17275 1968 29 NA GM ABBY 1968-06-04 12:00:00 TS 26.9000 -82.1000 55 992 hurdat_atl main 0 0 O_____________ hurdat_atl AL011968 26.9000 -82.1000 TS 55 992 0 11 31
1968153N17275 1968 29 NA NA ABBY 1968-06-04 15:00:00 TS 27.3023 -81.8695 main 0 0 P_____________ AL011968 27.3023 -81.8695 TS 55 0 8 27
1968153N17275 1968 29 NA NA ABBY 1968-06-04 18:00:00 TS 27.6000 -81.7000 55 hurdat_atl main 0 0 O_____________ hurdat_atl AL011968 27.6000 -81.7000 TS 55 0 6 31
1968153N17275 1968 29 NA NA ABBY 1968-06-04 21:00:00 TS 27.8450 -81.4999 main 0 0 P_____________ AL011968 27.8450 -81.4999 TS 52 0 5 41
1968153N17275 1968 29 NA NA ABBY 1968-06-05 00:00:00 TS 28.0000 -81.3000 50 hurdat_atl main 0 0 O_____________ hurdat_atl AL011968 28.0000 -81.3000 TS 50 0 4 56
1968153N17275 1968 29 NA NA ABBY 1968-06-05 03:00:00 TS 28.0875 -81.0999 main 0 0 P_____________ AL011968 28.0875 -81.0999 TS 50 0 4 74
1968153N17275 1968 29 NA NA ABBY 1968-06-05 06:00:00 TS 28.1000 -80.9000 50 994 hurdat_atl main 0 0 O_____________ hurdat_atl AL011968 28.1000 -80.9000 TS 50 994 0 4 92
1968153N17275 1968 29 NA NA ABBY 1968-06-05 09:00:00 TS 28.0725 -80.6925 main 0 0 P_____________ AL011968 28.0725 -80.6925 TS 50 986 0 4 106
1968153N17275 1968 29 NA NA ABBY 1968-06-05 12:00:00 TS 28.0000 -80.5000 50 hurdat_atl main 9 9 I_____________ hurdat_atl AL011968 28.0000 -80.5000 TS 50 979 0 4 122
1968153N17275 1968 29 NA NA ABBY 1968-06-05 15:00:00 TS 27.8775 -80.3349 main 19 19 P_____________ AL011968 27.8775 -80.3349 TS 50 972 0 3 127
1968153N17275 1968 29 NA NA ABBY 1968-06-05 18:00:00 TS 27.8000 -80.2000 50 965 hurdat_atl main 29 29 O_____________ hurdat_atl AL011968 27.8000 -80.2000 TS 50 965 0 3 98
1968153N17275 1968 29 NA NA ABBY 1968-06-05 21:00:00 TS 27.8400 -80.0478 main 45 45 P_____________ AL011968 27.8400 -80.0478 TS 50 981 0 3 42
1968153N17275 1968 29 NA NA ABBY 1968-06-06 00:00:00 TS 28.0000 -80.0000 50 997 hurdat_atl main 50 45 O_____________ hurdat_atl AL011968 28.0000 -80.0000 TS 50 997 0 4 349
1968153N17275 1968 29 NA NA ABBY 1968-06-06 03:00:00 TS 28.2775 -80.1473 main 45 14 P_____________ AL011968 28.2775 -80.1473 TS 50 0 7 330
1968153N17275 1968 29 NA NA ABBY 1968-06-06 06:00:00 TS 28.6000 -80.4000 50 hurdat_atl main 14 9 O_____________ hurdat_atl AL011968 28.6000 -80.4000 TS 50 0 7 321
1968153N17275 1968 29 NA NA ABBY 1968-06-06 09:00:00 TS 28.8351 -80.6576 main 9 0 P_____________ AL011968 28.8351 -80.6576 TS 50 0 7 319
1968153N17275 1968 29 NA NA ABBY 1968-06-06 12:00:00 TS 29.1000 -80.9000 50 hurdat_atl main 0 0 O_____________ hurdat_atl AL011968 29.1000 -80.9000 TS 50 0 7 331
1968153N17275 1968 29 NA NA ABBY 1968-06-06 15:00:00 TS 29.4849 -81.0651 main 9 9 P_____________ AL011968 29.4849 -81.0651 TS 50 0 8 342
1968153N17275 1968 29 NA NA ABBY 1968-06-06 18:00:00 TS 29.9000 -81.2000 50 hurdat_atl main 14 9 O_____________ hurdat_atl AL011968 29.9000 -81.2000 TS 50 0 8 342
1968153N17275 1968 29 NA NA ABBY 1968-06-06 21:00:00 TS 30.2500 -81.3502 main 9 0 P_____________ AL011968 30.2500 -81.3502 TS 50 0 7 340
1968153N17275 1968 29 NA NA ABBY 1968-06-07 00:00:00 TS 30.6000 -81.5000 50 999 hurdat_atl main 0 0 O_____________ hurdat_atl AL011968 30.6000 -81.5000 TS 50 999 0 8 341
1968153N17275 1968 29 NA NA ABBY 1968-06-07 03:00:00 TS 31.0075 -81.6574 main 0 0 P_____________ AL011968 31.0075 -81.6574 TS 50 0 8 342
1968153N17275 1968 29 NA NA ABBY 1968-06-07 06:00:00 TS 31.4000 -81.8000 50 hurdat_atl main 0 0 O_____________ hurdat_atl AL011968 31.4000 -81.8000 TS 50 0 7 342
1968153N17275 1968 29 NA NA ABBY 1968-06-07 09:00:00 TS 31.7150 -81.9226 main 0 0 P_____________ AL011968 31.7150 -81.9226 TS 47 0 6 344
1968153N17275 1968 29 NA NA ABBY 1968-06-07 12:00:00 TS 32.0000 -82.0000 45 hurdat_atl main 0 0 O_____________ hurdat_atl AL011968 32.0000 -82.0000 TS 45 0 6 353
1968153N17275 1968 29 NA NA ABBY 1968-06-07 15:00:00 TS 32.3150 -82.0003 main 0 0 P_____________ AL011968 32.3150 -82.0003 TS 37 0 6 0
1968153N17275 1968 29 NA NA ABBY 1968-06-07 18:00:00 TS 32.6000 -82.0000 30 hurdat_atl main 0 0 O_____________ hurdat_atl AL011968 32.6000 -82.0000 TD 30 -1 5 351
1968153N17275 1968 29 NA NA ABBY 1968-06-07 21:00:00 TS 32.8075 -82.0999 main 0 0 P_____________ AL011968 32.8075 -82.0999 TD 30 -1 4 337
1968153N17275 1968 29 NA NA ABBY 1968-06-08 00:00:00 TS 33.0000 -82.2000 30 hurdat_atl main 0 0 O_____________ hurdat_atl AL011968 33.0000 -82.2000 TD 30 -1 4 348
1968153N17275 1968 29 NA NA ABBY 1968-06-08 03:00:00 TS 33.2425 -82.2077 main 0 0 P_____________ AL011968 33.2425 -82.2077 TD 30 -1 5 2
1968153N17275 1968 29 NA NA ABBY 1968-06-08 06:00:00 TS 33.5000 -82.2000 30 hurdat_atl main 0 0 O_____________ hurdat_atl AL011968 33.5000 -82.2000 TD 30 -1 5 357
1968153N17275 1968 29 NA NA ABBY 1968-06-08 09:00:00 TS 33.7575 -82.2499 main 0 0 P_____________ AL011968 33.7575 -82.2499 TD 27 -1 5 351
1968153N17275 1968 29 NA NA ABBY 1968-06-08 12:00:00 TS 34.0000 -82.3000 25 hurdat_atl main 0 0 O_____________ hurdat_atl AL011968 34.0000 -82.3000 TD 25 -1 4 351
1968153N17275 1968 29 NA NA ABBY 1968-06-08 15:00:00 TS 34.1925 -82.3298 main 0 0 P_____________ AL011968 34.1925 -82.3298 TD 25 -1 4 0
1968153N17275 1968 29 NA NA ABBY 1968-06-08 18:00:00 TS 34.4000 -82.3000 25 hurdat_atl main 0 0 O_____________ hurdat_atl AL011968 34.4000 -82.3000 TD 25 -1 5 15
1968153N17275 1968 29 NA NA ABBY 1968-06-08 21:00:00 TS 34.7076 -82.1653 main 0 0 P_____________ AL011968 34.7076 -82.1653 TD 25 -1 7 22
1968153N17275 1968 29 NA NA ABBY 1968-06-09 00:00:00 TS 35.0000 -82.0000 25 hurdat_atl main 0 0 O_____________ hurdat_atl AL011968 35.0000 -82.0000 TD 25 -1 5 23
1968153N17275 1968 29 NA NA ABBY 1968-06-09 03:00:00 TS 35.1648 -81.9295 main 0 0 P_____________ AL011968 35.1648 -81.9295 TD 25 -1 3 28
1968153N17275 1968 29 NA NA ABBY 1968-06-09 06:00:00 TS 35.3000 -81.8000 25 hurdat_atl main 0 0 O_____________ hurdat_atl AL011968 35.3000 -81.8000 TD 25 -1 5 46
1968153N17275 1968 29 NA NA ABBY 1968-06-09 09:00:00 TS 35.5076 -81.4953 main 0 0 P_____________ AL011968 35.5076 -81.4953 TD 25 -1 7 55
1968153N17275 1968 29 NA NA ABBY 1968-06-09 12:00:00 TS 35.7000 -81.1000 25 hurdat_atl main 0 0 O_____________ hurdat_atl AL011968 35.7000 -81.1000 TD 25 -1 7 63
1968153N17275 1968 29 NA NA ABBY 1968-06-09 15:00:00 TS 35.8299 -80.7075 main 0 0 P_____________ AL011968 35.8299 -80.7075 TD 25 -1 7 73
1968153N17275 1968 29 NA NA ABBY 1968-06-09 18:00:00 TS 35.9000 -80.3000 25 hurdat_atl main 0 0 O_____________ hurdat_atl AL011968 35.9000 -80.3000 TD 25 -1 7 81
1968153N17275 1968 29 NA NA ABBY 1968-06-09 21:00:00 TS 35.9375 -79.8851 main 0 0 P_____________ AL011968 35.9375 -79.8851 TD 25 -1 6 90
1968153N17275 1968 29 NA NA ABBY 1968-06-10 00:00:00 TS 35.9000 -79.5000 25 hurdat_atl main 0 0 O_____________ hurdat_atl AL011968 35.9000 -79.5000 TD 25 -1 6 103
1968153N17275 1968 29 NA NA ABBY 1968-06-10 03:00:00 TS 35.8025 -79.1549 main 0 0 P_____________ AL011968 35.8025 -79.1549 TD 25 -1 6 122
1968153N17275 1968 29 NA NA ABBY 1968-06-10 06:00:00 TS 35.6000 -78.9000 25 hurdat_atl main 0 0 O_____________ hurdat_atl AL011968 35.6000 -78.9000 TD 25 -1 6 147
1968153N17275 1968 29 NA NA ABBY 1968-06-10 09:00:00 TS 35.2799 -78.7322 main 0 0 P_____________ AL011968 35.2799 -78.7322 TD 25 -1 7 167
1968153N17275 1968 29 NA NA ABBY 1968-06-10 12:00:00 TS 34.9000 -78.7000 25 hurdat_atl main 0 0 O_____________ hurdat_atl AL011968 34.9000 -78.7000 TD 25 -1 7 185
1968153N17275 1968 29 NA NA ABBY 1968-06-10 15:00:00 TS 34.5651 -78.8204 main 0 0 P_____________ AL011968 34.5651 -78.8204 TD 25 -1 7 199
1968153N17275 1968 29 NA NA ABBY 1968-06-10 18:00:00 TS 34.2000 -79.0000 25 hurdat_atl main 0 0 O_____________ hurdat_atl AL011968 34.2000 -79.0000 TD 25 -1 9 197
1968153N17275 1968 29 NA NA ABBY 1968-06-10 21:00:00 TS 33.7050 -79.1377 main 0 0 P_____________ AL011968 33.7050 -79.1377 TD 25 -1 9 190
1968153N17275 1968 29 NA NA ABBY 1968-06-11 00:00:00 TS 33.3000 -79.2000 25 hurdat_atl main 0 0 O_____________ hurdat_atl AL011968 33.3000 -79.2000 TD 25 -1 5 0
1968153N17275 1968 29 NA NA ABBY 1968-06-11 03:00:00 TS 33.1750 -79.1373 main 9 9 P_____________ AL011968 33.1750 -79.1373 TD 25 -1 2 121
1968153N17275 1968 29 NA NA ABBY 1968-06-11 06:00:00 TS 33.2000 -79.0000 25 hurdat_atl main 18 18 O_____________ hurdat_atl AL011968 33.2000 -79.0000 TD 25 -1 2 76
1968153N17275 1968 29 NA NA ABBY 1968-06-11 09:00:00 TS 33.2350 -78.8501 main 27 27 P_____________ AL011968 33.2350 -78.8501 TD 25 -1 3 68
1968153N17275 1968 29 NA NA ABBY 1968-06-11 12:00:00 TS 33.3000 -78.7000 25 hurdat_atl main 43 43 O_____________ hurdat_atl AL011968 33.3000 -78.7000 TD 25 -1 2 63
1968153N17275 1968 29 NA NA ABBY 1968-06-11 15:00:00 TS 33.3425 -78.5999 main 49 43 P_____________ AL011968 33.3425 -78.5999 TD 25 -1 2 59
1968153N17275 1968 29 NA NA ABBY 1968-06-11 18:00:00 TS 33.4000 -78.5000 25 hurdat_atl main 49 44 O_____________ hurdat_atl AL011968 33.4000 -78.5000 TD 25 -1 3 54
1968153N17275 1968 29 NA NA ABBY 1968-06-11 21:00:00 TS 33.4925 -78.3500 main 44 33 P_____________ AL011968 33.4925 -78.3500 TD 25 -1 3 52
1968153N17275 1968 29 NA NA ABBY 1968-06-12 00:00:00 TS 33.6000 -78.2000 25 hurdat_atl main 33 22 O_____________ hurdat_atl AL011968 33.6000 -78.2000 TD 25 -1 3 46
1968153N17275 1968 29 NA NA ABBY 1968-06-12 03:00:00 TS 33.7000 -78.0924 main 22 11 P_____________ AL011968 33.7000 -78.0924 TD 25 -1 3 40
1968153N17275 1968 29 NA NA ABBY 1968-06-12 06:00:00 TS 33.8000 -78.0000 25 hurdat_atl main 11 9 O_____________ hurdat_atl AL011968 33.8000 -78.0000 TD 25 -1 2 39
1968153N17275 1968 29 NA NA ABBY 1968-06-12 09:00:00 TS 33.8623 -77.9370 main 9 9 P_____________ AL011968 33.8623 -77.9370 TD 25 -1 3 40
1968153N17275 1968 29 NA NA ABBY 1968-06-12 12:00:00 TS 34.0000 -77.8000 25 hurdat_atl main 14 14 O_____________ hurdat_atl AL011968 34.0000 -77.8000 TD 25 -1 6 40
1968153N17275 1968 29 NA NA ABBY 1968-06-12 15:00:00 TS 34.3128 -77.4731 main 14 0 P_____________ AL011968 34.3128 -77.4731 TD 25 -1 9 40
1968153N17275 1968 29 NA NA ABBY 1968-06-12 18:00:00 TS 34.7000 -77.1000 25 hurdat_atl main 0 0 O_____________ hurdat_atl AL011968 34.7000 -77.1000 TD 25 -1 9 35
1968153N17275 1968 29 NA NA ABBY 1968-06-12 21:00:00 TS 35.0497 -76.8494 main 0 0 P_____________ AL011968 35.0497 -76.8494 TD 25 -1 8 30
1968153N17275 1968 29 NA NA ABBY 1968-06-13 00:00:00 TS 35.4000 -76.6000 25 hurdat_atl main 0 0 O_____________ hurdat_atl AL011968 35.4000 -76.6000 TD 25 -1 8 34
1968153N17275 1968 29 NA NA ABBY 1968-06-13 03:00:00 TS 35.7499 -76.2797 main 0 0 P_____________ AL011968 35.7499 -76.2797 TD 25 -1 9 39
1968153N17275 1968 29 NA NA ABBY 1968-06-13 06:00:00 TS 36.1000 -75.9000 25 hurdat_atl main 8 0 O_____________ hurdat_atl AL011968 36.1000 -75.9000 TD 25 -1 10 43
1968153N17275 1968 29 NA NA ABBY 1968-06-13 09:00:00 TS 36.4728 -75.4355 main 37 37 P_____________ AL011968 36.4728 -75.4355 TD 25 -1 10 46
1968153N17275 1968 29 NA NA ABBY 1968-06-13 12:00:00 TS 36.8000 -75.0000 25 hurdat_atl main 83 83 O_____________ hurdat_atl AL011968 36.8000 -75.0000 TD 25 -1 8 46
1968153N17275 1968 29 NA NA ABBY 1968-06-13 15:00:00 TS 37.0298 -74.7047 main 104 98 P_____________ AL011968 37.0298 -74.7047 TD 25 -1 6 45
1968153N17275 1968 29 NA NA ABBY 1968-06-13 18:00:00 TS 37.2000 -74.5000 25 hurdat_atl main 110 O_____________ hurdat_atl AL011968 37.2000 -74.5000 TD 25 -1 5 44

IBTrACS Databaseについて

本データベースは、米国NOAAが公開する1842年以降の世界の熱帯低気圧のベストトラックデータアーカイブInternational Best Track Archive for Climate Stewardship (IBTrACS)を、ウェブで閲覧しやすい形式に変換したものです。

最終更新日:2021-10-08